sensor_id;sensor_type;location;lat;lon;timestamp;temperature;humidity
1992;DHT22;997;48.448;8.924;2022-08-03T03:02:03;19.40;99.90
1992;DHT22;997;48.448;8.924;2022-08-03T03:04:29;19.30;99.90
1992;DHT22;997;48.448;8.924;2022-08-03T03:06:56;19.30;99.90
1992;DHT22;997;48.448;8.924;2022-08-03T03:09:22;19.30;99.90
1992;DHT22;997;48.448;8.924;2022-08-03T03:11:49;19.30;99.90
1992;DHT22;997;48.448;8.924;2022-08-03T03:14:17;19.10;99.90
1992;DHT22;997;48.448;8.924;2022-08-03T03:16:44;19.10;99.90
1992;DHT22;997;48.448;8.924;2022-08-03T03:19:12;19.10;99.90
1992;DHT22;997;48.448;8.924;2022-08-03T03:21:38;19.10;99.90
1992;DHT22;997;48.448;8.924;2022-08-03T03:24:05;19.20;99.90
1992;DHT22;997;48.448;8.924;2022-08-03T03:26:32;19.30;99.90
1992;DHT22;997;48.448;8.924;2022-08-03T03:29:00;19.30;99.90
1992;DHT22;997;48.448;8.924;2022-08-03T03:31:26;19.30;99.90
1992;DHT22;997;48.448;8.924;2022-08-03T03:33:52;19.30;99.90
1992;DHT22;997;48.448;8.924;2022-08-03T03:36:18;19.30;99.90
1992;DHT22;997;48.448;8.924;2022-08-03T03:38:43;19.30;99.90
1992;DHT22;997;48.448;8.924;2022-08-03T03:41:09;19.30;99.90
1992;DHT22;997;48.448;8.924;2022-08-03T03:43:35;19.30;99.90
1992;DHT22;997;48.448;8.924;2022-08-03T03:46:01;19.40;99.90
1992;DHT22;997;48.448;8.924;2022-08-03T03:48:28;19.40;99.90
1992;DHT22;997;48.448;8.924;2022-08-03T03:50:54;19.40;99.90
1992;DHT22;997;48.448;8.924;2022-08-03T03:53:22;19.30;99.90
1992;DHT22;997;48.448;8.924;2022-08-03T03:55:47;19.30;99.90
1992;DHT22;997;48.448;8.924;2022-08-03T03:58:13;19.30;99.90
1992;DHT22;997;48.448;8.924;2022-08-03T04:00:40;19.30;99.90
1992;DHT22;997;48.448;8.924;2022-08-03T04:03:09;19.30;99.90
1992;DHT22;997;48.448;8.924;2022-08-03T04:05:36;19.30;99.90
1992;DHT22;997;48.448;8.924;2022-08-03T04:08:20;19.30;99.90
1992;DHT22;997;48.448;8.924;2022-08-03T04:13:53;19.30;99.90
1992;DHT22;997;48.448;8.924;2022-08-03T04:16:23;19.20;99.90
1992;DHT22;997;48.448;8.924;2022-08-03T04:19:02;19.00;99.90
1992;DHT22;997;48.448;8.924;2022-08-03T04:21:29;18.90;99.90
1992;DHT22;997;48.448;8.924;2022-08-03T04:24:01;18.80;99.90
1992;DHT22;997;48.448;8.924;2022-08-03T04:26:30;18.80;99.90
1992;DHT22;997;48.448;8.924;2022-08-03T04:28:59;18.80;99.90
1992;DHT22;997;48.448;8.924;2022-08-03T04:31:26;18.90;99.90
1992;DHT22;997;48.448;8.924;2022-08-03T04:33:53;18.80;99.90
1992;DHT22;997;48.448;8.924;2022-08-03T04:36:25;18.80;99.90
1992;DHT22;997;48.448;8.924;2022-08-03T04:39:02;18.90;99.90
1992;DHT22;997;48.448;8.924;2022-08-03T04:41:29;19.00;99.90
1992;DHT22;997;48.448;8.924;2022-08-03T04:43:58;19.10;99.90
1992;DHT22;997;48.448;8.924;2022-08-03T04:46:31;19.20;99.90
1992;DHT22;997;48.448;8.924;2022-08-03T04:48:57;19.30;99.90
1992;DHT22;997;48.448;8.924;2022-08-03T04:51:24;19.20;99.90
1992;DHT22;997;48.448;8.924;2022-08-03T04:53:50;19.20;99.90
1992;DHT22;997;48.448;8.924;2022-08-03T04:56:16;19.20;99.90
1992;DHT22;997;48.448;8.924;2022-08-03T04:58:42;19.30;99.90
1992;DHT22;997;48.448;8.924;2022-08-03T05:01:07;19.40;99.90
1992;DHT22;997;48.448;8.924;2022-08-03T05:03:33;19.50;99.90
1992;DHT22;997;48.448;8.924;2022-08-03T05:05:59;19.50;99.90
1992;DHT22;997;48.448;8.924;2022-08-03T05:08:24;19.60;99.90
1992;DHT22;997;48.448;8.924;2022-08-03T05:10:50;19.60;99.90
1992;DHT22;997;48.448;8.924;2022-08-03T05:13:16;19.70;99.90
1992;DHT22;997;48.448;8.924;2022-08-03T05:15:41;19.80;99.90
1992;DHT22;997;48.448;8.924;2022-08-03T05:18:07;19.80;99.90
1992;DHT22;997;48.448;8.924;2022-08-03T05:20:33;19.80;99.90
1992;DHT22;997;48.448;8.924;2022-08-03T05:22:58;19.80;99.90
1992;DHT22;997;48.448;8.924;2022-08-03T05:25:28;19.80;99.90
1992;DHT22;997;48.448;8.924;2022-08-03T05:27:54;19.80;99.90
1992;DHT22;997;48.448;8.924;2022-08-03T05:30:20;19.80;99.90
1992;DHT22;997;48.448;8.924;2022-08-03T05:32:46;19.80;99.90
1992;DHT22;997;48.448;8.924;2022-08-03T05:35:12;19.80;99.90
1992;DHT22;997;48.448;8.924;2022-08-03T05:37:38;19.90;99.90
1992;DHT22;997;48.448;8.924;2022-08-03T05:40:04;19.90;99.90
1992;DHT22;997;48.448;8.924;2022-08-03T05:42:30;19.90;99.90
1992;DHT22;997;48.448;8.924;2022-08-03T05:44:55;19.90;99.90
1992;DHT22;997;48.448;8.924;2022-08-03T05:47:21;19.80;99.90
1992;DHT22;997;48.448;8.924;2022-08-03T05:49:47;19.90;99.90
1992;DHT22;997;48.448;8.924;2022-08-03T05:52:12;19.90;99.90
1992;DHT22;997;48.448;8.924;2022-08-03T05:54:38;19.90;99.90
1992;DHT22;997;48.448;8.924;2022-08-03T05:57:04;19.80;99.90
1992;DHT22;997;48.448;8.924;2022-08-03T05:59:29;19.90;99.90
1992;DHT22;997;48.448;8.924;2022-08-03T06:01:55;19.90;99.90
1992;DHT22;997;48.448;8.924;2022-08-03T06:04:21;20.00;99.90
1992;DHT22;997;48.448;8.924;2022-08-03T06:06:46;20.00;99.90
1992;DHT22;997;48.448;8.924;2022-08-03T06:09:13;20.10;99.90
1992;DHT22;997;48.448;8.924;2022-08-03T06:11:39;20.20;99.90
1992;DHT22;997;48.448;8.924;2022-08-03T06:14:06;20.20;99.90
1992;DHT22;997;48.448;8.924;2022-08-03T06:16:32;20.40;99.90
1992;DHT22;997;48.448;8.924;2022-08-03T06:18:58;20.40;99.90
1992;DHT22;997;48.448;8.924;2022-08-03T06:21:23;20.50;99.90
1992;DHT22;997;48.448;8.924;2022-08-03T06:23:49;20.60;99.90
1992;DHT22;997;48.448;8.924;2022-08-03T06:26:15;20.80;99.90
1992;DHT22;997;48.448;8.924;2022-08-03T06:28:43;20.90;99.90
1992;DHT22;997;48.448;8.924;2022-08-03T06:31:09;21.10;99.90
1992;DHT22;997;48.448;8.924;2022-08-03T06:33:35;21.20;99.90
1992;DHT22;997;48.448;8.924;2022-08-03T06:36:00;21.30;99.90
1992;DHT22;997;48.448;8.924;2022-08-03T06:38:26;21.40;99.90
1992;DHT22;997;48.448;8.924;2022-08-03T06:40:52;21.40;99.90
1992;DHT22;997;48.448;8.924;2022-08-03T06:43:17;21.50;99.90
1992;DHT22;997;48.448;8.924;2022-08-03T06:45:43;21.60;99.90
1992;DHT22;997;48.448;8.924;2022-08-03T06:48:10;21.60;99.90
1992;DHT22;997;48.448;8.924;2022-08-03T06:50:38;21.70;99.90
1992;DHT22;997;48.448;8.924;2022-08-03T06:53:04;21.80;99.90
1992;DHT22;997;48.448;8.924;2022-08-03T06:55:31;22.00;99.90
1992;DHT22;997;48.448;8.924;2022-08-03T06:57:57;22.00;99.90
1992;DHT22;997;48.448;8.924;2022-08-03T07:00:23;22.10;99.90
1992;DHT22;997;48.448;8.924;2022-08-03T07:02:49;22.30;99.90
1992;DHT22;997;48.448;8.924;2022-08-03T07:05:16;22.50;99.90
1992;DHT22;997;48.448;8.924;2022-08-03T07:07:42;22.60;99.90
1992;DHT22;997;48.448;8.924;2022-08-03T07:10:09;22.70;99.90
1992;DHT22;997;48.448;8.924;2022-08-03T07:12:38;22.90;99.90
1992;DHT22;997;48.448;8.924;2022-08-03T07:15:07;23.10;99.90
1992;DHT22;997;48.448;8.924;2022-08-03T07:17:34;23.30;99.90
1992;DHT22;997;48.448;8.924;2022-08-03T07:20:02;23.60;99.90
1992;DHT22;997;48.448;8.924;2022-08-03T07:22:28;23.60;99.90
1992;DHT22;997;48.448;8.924;2022-08-03T07:24:55;23.70;99.90
1992;DHT22;997;48.448;8.924;2022-08-03T07:27:21;23.70;99.90
1992;DHT22;997;48.448;8.924;2022-08-03T07:29:47;23.90;99.90
1992;DHT22;997;48.448;8.924;2022-08-03T07:32:13;23.90;99.90
1992;DHT22;997;48.448;8.924;2022-08-03T07:34:38;24.00;99.90
1992;DHT22;997;48.448;8.924;2022-08-03T07:37:04;24.20;99.90
1992;DHT22;997;48.448;8.924;2022-08-03T07:39:30;24.40;99.90
1992;DHT22;997;48.448;8.924;2022-08-03T07:41:56;24.30;99.90
1992;DHT22;997;48.448;8.924;2022-08-03T07:44:22;24.30;99.90
1992;DHT22;997;48.448;8.924;2022-08-03T07:46:48;24.50;99.90
1992;DHT22;997;48.448;8.924;2022-08-03T07:49:15;24.60;99.90
1992;DHT22;997;48.448;8.924;2022-08-03T07:51:41;24.60;99.90
1992;DHT22;997;48.448;8.924;2022-08-03T07:54:07;24.70;99.90
1992;DHT22;997;48.448;8.924;2022-08-03T07:56:35;25.10;99.90
1992;DHT22;997;48.448;8.924;2022-08-03T07:59:00;25.00;99.90
1992;DHT22;997;48.448;8.924;2022-08-03T08:01:27;25.20;99.90
1992;DHT22;997;48.448;8.924;2022-08-03T08:03:54;25.30;99.90
1992;DHT22;997;48.448;8.924;2022-08-03T08:06:20;25.40;99.90
1992;DHT22;997;48.448;8.924;2022-08-03T08:08:46;25.50;99.90
1992;DHT22;997;48.448;8.924;2022-08-03T08:11:12;25.60;99.90
1992;DHT22;997;48.448;8.924;2022-08-03T08:13:37;25.60;99.90
1992;DHT22;997;48.448;8.924;2022-08-03T08:16:05;25.50;99.90
1992;DHT22;997;48.448;8.924;2022-08-03T08:18:31;25.60;99.90
1992;DHT22;997;48.448;8.924;2022-08-03T08:20:57;25.60;99.90
1992;DHT22;997;48.448;8.924;2022-08-03T08:23:24;25.80;99.90
1992;DHT22;997;48.448;8.924;2022-08-03T08:25:50;26.00;99.90
1992;DHT22;997;48.448;8.924;2022-08-03T08:28:17;26.20;99.90
1992;DHT22;997;48.448;8.924;2022-08-03T08:30:43;26.20;99.90
1992;DHT22;997;48.448;8.924;2022-08-03T08:33:09;26.20;99.90
1992;DHT22;997;48.448;8.924;2022-08-03T08:35:35;26.20;99.90
1992;DHT22;997;48.448;8.924;2022-08-03T08:38:01;26.20;99.90
1992;DHT22;997;48.448;8.924;2022-08-03T08:40:27;26.30;99.90
1992;DHT22;997;48.448;8.924;2022-08-03T08:42:53;26.40;99.90
1992;DHT22;997;48.448;8.924;2022-08-03T08:45:19;26.50;99.90
1992;DHT22;997;48.448;8.924;2022-08-03T08:47:48;26.60;99.90
1992;DHT22;997;48.448;8.924;2022-08-03T08:50:19;26.70;99.90
1992;DHT22;997;48.448;8.924;2022-08-03T08:52:49;26.80;99.90
1992;DHT22;997;48.448;8.924;2022-08-03T08:55:20;27.00;99.90
1992;DHT22;997;48.448;8.924;2022-08-03T08:57:48;27.10;99.90
1992;DHT22;997;48.448;8.924;2022-08-03T09:00:15;27.40;99.90
1992;DHT22;997;48.448;8.924;2022-08-03T09:02:42;27.40;99.90
1992;DHT22;997;48.448;8.924;2022-08-03T09:05:14;27.50;99.90
1992;DHT22;997;48.448;8.924;2022-08-03T09:07:40;27.60;99.90
1992;DHT22;997;48.448;8.924;2022-08-03T09:10:09;27.50;99.90
1992;DHT22;997;48.448;8.924;2022-08-03T09:12:42;27.60;99.90
1992;DHT22;997;48.448;8.924;2022-08-03T09:15:27;27.70;99.90
1992;DHT22;997;48.448;8.924;2022-08-03T09:18:00;27.80;99.90
1992;DHT22;997;48.448;8.924;2022-08-03T09:20:30;27.90;99.90
1992;DHT22;997;48.448;8.924;2022-08-03T09:23:05;27.90;99.90
1992;DHT22;997;48.448;8.924;2022-08-03T09:25:37;27.90;99.90
1992;DHT22;997;48.448;8.924;2022-08-03T09:30:43;28.20;99.90
1992;DHT22;997;48.448;8.924;2022-08-03T09:33:11;28.40;99.90
1992;DHT22;997;48.448;8.924;2022-08-03T09:35:47;28.60;99.90
1992;DHT22;997;48.448;8.924;2022-08-03T09:38:16;29.00;99.90
1992;DHT22;997;48.448;8.924;2022-08-03T09:40:42;29.10;99.90
1992;DHT22;997;48.448;8.924;2022-08-03T09:43:09;29.40;99.90
1992;DHT22;997;48.448;8.924;2022-08-03T09:45:39;29.70;99.90
1992;DHT22;997;48.448;8.924;2022-08-03T09:50:57;29.80;99.90
1992;DHT22;997;48.448;8.924;2022-08-03T09:53:23;29.80;99.90
1992;DHT22;997;48.448;8.924;2022-08-03T09:55:59;30.00;99.90
1992;DHT22;997;48.448;8.924;2022-08-03T09:58:28;30.20;99.90
1992;DHT22;997;48.448;8.924;2022-08-03T10:01:03;30.40;99.90
1992;DHT22;997;48.448;8.924;2022-08-03T10:03:33;30.50;99.90
1992;DHT22;997;48.448;8.924;2022-08-03T10:06:17;30.60;99.90
1992;DHT22;997;48.448;8.924;2022-08-03T10:11:32;30.50;99.90
1992;DHT22;997;48.448;8.924;2022-08-03T10:14:01;30.50;99.90
1992;DHT22;997;48.448;8.924;2022-08-03T10:16:33;30.40;99.90
1992;DHT22;997;48.448;8.924;2022-08-03T10:19:00;30.30;99.90
1992;DHT22;997;48.448;8.924;2022-08-03T10:21:31;30.40;99.90
1992;DHT22;997;48.448;8.924;2022-08-03T10:24:00;30.60;99.90
1992;DHT22;997;48.448;8.924;2022-08-03T10:26:27;30.60;99.90
1992;DHT22;997;48.448;8.924;2022-08-03T10:28:58;30.70;99.90
1992;DHT22;997;48.448;8.924;2022-08-03T10:31:25;30.90;99.90
1992;DHT22;997;48.448;8.924;2022-08-03T10:33:58;30.90;99.90
1992;DHT22;997;48.448;8.924;2022-08-03T10:36:26;31.10;99.90
1992;DHT22;997;48.448;8.924;2022-08-03T10:38:55;31.20;99.90
1992;DHT22;997;48.448;8.924;2022-08-03T10:41:36;31.30;99.90
1992;DHT22;997;48.448;8.924;2022-08-03T10:44:07;31.30;99.90
1992;DHT22;997;48.448;8.924;2022-08-03T10:46:36;31.50;99.90
1992;DHT22;997;48.448;8.924;2022-08-03T10:49:03;31.50;99.90
1992;DHT22;997;48.448;8.924;2022-08-03T10:51:30;31.20;99.90
1992;DHT22;997;48.448;8.924;2022-08-03T10:53:57;31.30;99.90
1992;DHT22;997;48.448;8.924;2022-08-03T11:02:12;31.50;99.90
1992;DHT22;997;48.448;8.924;2022-08-03T11:04:39;31.70;99.90
1992;DHT22;997;48.448;8.924;2022-08-03T11:07:18;31.80;98.90
1992;DHT22;997;48.448;8.924;2022-08-03T11:09:52;31.90;97.90
1992;DHT22;997;48.448;8.924;2022-08-03T11:12:25;32.00;98.50
1992;DHT22;997;48.448;8.924;2022-08-03T11:14:52;32.00;98.10
1992;DHT22;997;48.448;8.924;2022-08-03T11:17:19;32.10;99.40
1992;DHT22;997;48.448;8.924;2022-08-03T11:19:50;32.20;96.80
1992;DHT22;997;48.448;8.924;2022-08-03T11:22:17;32.00;95.60
1992;DHT22;997;48.448;8.924;2022-08-03T11:30:05;32.30;96.90
1992;DHT22;997;48.448;8.924;2022-08-03T11:35:26;32.90;95.50
1992;DHT22;997;48.448;8.924;2022-08-03T11:43:00;32.90;94.20
1992;DHT22;997;48.448;8.924;2022-08-03T11:45:26;32.90;93.50
1992;DHT22;997;48.448;8.924;2022-08-03T11:47:54;33.00;94.90
1992;DHT22;997;48.448;8.924;2022-08-03T11:50:20;33.10;93.10
1992;DHT22;997;48.448;8.924;2022-08-03T11:52:46;33.20;93.10
1992;DHT22;997;48.448;8.924;2022-08-03T11:55:15;33.30;93.00
1992;DHT22;997;48.448;8.924;2022-08-03T11:57:42;33.30;91.90
1992;DHT22;997;48.448;8.924;2022-08-03T12:00:34;33.50;91.80
1992;DHT22;997;48.448;8.924;2022-08-03T12:03:05;33.50;90.20
1992;DHT22;997;48.448;8.924;2022-08-03T12:05:50;33.60;91.20
1992;DHT22;997;48.448;8.924;2022-08-03T12:10:53;33.50;90.50
1992;DHT22;997;48.448;8.924;2022-08-03T12:13:20;33.80;90.60
1992;DHT22;997;48.448;8.924;2022-08-03T12:15:54;33.90;89.20
1992;DHT22;997;48.448;8.924;2022-08-03T12:18:21;33.90;88.50
1992;DHT22;997;48.448;8.924;2022-08-03T12:20:48;34.10;90.00
1992;DHT22;997;48.448;8.924;2022-08-03T12:23:15;34.20;86.70
1992;DHT22;997;48.448;8.924;2022-08-03T12:25:42;34.20;87.90
1992;DHT22;997;48.448;8.924;2022-08-03T12:28:19;34.30;86.30
1992;DHT22;997;48.448;8.924;2022-08-03T12:30:49;34.30;84.60
1992;DHT22;997;48.448;8.924;2022-08-03T12:33:21;34.20;83.80
1992;DHT22;997;48.448;8.924;2022-08-03T12:35:48;34.30;82.70
1992;DHT22;997;48.448;8.924;2022-08-03T12:38:21;34.30;83.80
1992;DHT22;997;48.448;8.924;2022-08-03T12:41:07;34.40;81.40
1992;DHT22;997;48.448;8.924;2022-08-03T12:43:37;34.30;78.40
1992;DHT22;997;48.448;8.924;2022-08-03T12:46:12;34.40;82.20
1992;DHT22;997;48.448;8.924;2022-08-03T12:48:58;34.40;79.30
1992;DHT22;997;48.448;8.924;2022-08-03T12:51:24;34.50;80.00
1992;DHT22;997;48.448;8.924;2022-08-03T12:53:56;34.60;80.60
1992;DHT22;997;48.448;8.924;2022-08-03T12:56:23;34.80;78.80
1992;DHT22;997;48.448;8.924;2022-08-03T12:58:49;34.80;78.00
1992;DHT22;997;48.448;8.924;2022-08-03T13:01:16;34.90;77.10
1992;DHT22;997;48.448;8.924;2022-08-03T13:03:47;35.00;76.60
1992;DHT22;997;48.448;8.924;2022-08-03T13:06:17;35.00;74.70
1992;DHT22;997;48.448;8.924;2022-08-03T13:08:44;35.10;75.60
1992;DHT22;997;48.448;8.924;2022-08-03T13:11:21;35.10;76.00
1992;DHT22;997;48.448;8.924;2022-08-03T13:13:48;35.40;75.20
1992;DHT22;997;48.448;8.924;2022-08-03T13:16:14;35.70;77.00
1992;DHT22;997;48.448;8.924;2022-08-03T13:18:40;35.90;76.50
1992;DHT22;997;48.448;8.924;2022-08-03T13:21:06;35.90;73.70
1992;DHT22;997;48.448;8.924;2022-08-03T13:23:32;36.00;73.00
1992;DHT22;997;48.448;8.924;2022-08-03T13:25:58;36.00;75.30
1992;DHT22;997;48.448;8.924;2022-08-03T13:28:24;36.00;73.50
1992;DHT22;997;48.448;8.924;2022-08-03T13:30:50;35.90;71.20
1992;DHT22;997;48.448;8.924;2022-08-03T13:33:16;35.90;72.10
1992;DHT22;997;48.448;8.924;2022-08-03T13:35:42;35.90;72.00
1992;DHT22;997;48.448;8.924;2022-08-03T13:38:08;36.00;71.70
1992;DHT22;997;48.448;8.924;2022-08-03T13:40:33;35.90;72.50
1992;DHT22;997;48.448;8.924;2022-08-03T13:43:00;36.10;71.10
1992;DHT22;997;48.448;8.924;2022-08-03T13:45:26;36.30;69.90
1992;DHT22;997;48.448;8.924;2022-08-03T13:47:52;36.30;67.00
1992;DHT22;997;48.448;8.924;2022-08-03T13:50:18;36.10;68.20
1992;DHT22;997;48.448;8.924;2022-08-03T13:52:43;36.00;66.80
1992;DHT22;997;48.448;8.924;2022-08-03T13:55:11;36.10;70.20
1992;DHT22;997;48.448;8.924;2022-08-03T13:57:37;36.20;70.10
1992;DHT22;997;48.448;8.924;2022-08-03T14:00:03;36.30;69.20
1992;DHT22;997;48.448;8.924;2022-08-03T14:02:30;36.40;68.70
1992;DHT22;997;48.448;8.924;2022-08-03T14:04:55;36.30;68.00
1992;DHT22;997;48.448;8.924;2022-08-03T14:07:21;36.40;66.20
1992;DHT22;997;48.448;8.924;2022-08-03T14:09:47;36.40;66.30
1992;DHT22;997;48.448;8.924;2022-08-03T14:12:12;36.50;66.00
1992;DHT22;997;48.448;8.924;2022-08-03T14:14:38;36.70;68.10
1992;DHT22;997;48.448;8.924;2022-08-03T14:17:04;36.90;67.40
1992;DHT22;997;48.448;8.924;2022-08-03T14:19:30;37.00;67.00
1992;DHT22;997;48.448;8.924;2022-08-03T14:21:56;37.20;65.10
1992;DHT22;997;48.448;8.924;2022-08-03T14:24:22;37.40;65.50
1992;DHT22;997;48.448;8.924;2022-08-03T14:26:47;37.60;65.90
1992;DHT22;997;48.448;8.924;2022-08-03T14:29:13;37.80;64.50
1992;DHT22;997;48.448;8.924;2022-08-03T14:31:39;38.10;64.40
1992;DHT22;997;48.448;8.924;2022-08-03T14:34:04;38.20;63.50
1992;DHT22;997;48.448;8.924;2022-08-03T14:36:30;38.30;62.20
1992;DHT22;997;48.448;8.924;2022-08-03T14:38:56;38.40;60.50
1992;DHT22;997;48.448;8.924;2022-08-03T14:41:21;38.50;59.50
1992;DHT22;997;48.448;8.924;2022-08-03T14:43:47;38.60;59.30
1992;DHT22;997;48.448;8.924;2022-08-03T14:46:13;38.90;59.60
1992;DHT22;997;48.448;8.924;2022-08-03T14:48:39;39.00;60.40
1992;DHT22;997;48.448;8.924;2022-08-03T14:51:05;39.30;59.30
1992;DHT22;997;48.448;8.924;2022-08-03T14:53:31;39.30;59.10
1992;DHT22;997;48.448;8.924;2022-08-03T14:55:56;39.50;58.30
1992;DHT22;997;48.448;8.924;2022-08-03T14:58:23;39.90;57.10
1992;DHT22;997;48.448;8.924;2022-08-03T15:00:53;40.10;57.40
1992;DHT22;997;48.448;8.924;2022-08-03T15:03:20;40.30;56.50
1992;DHT22;997;48.448;8.924;2022-08-03T15:05:48;40.00;55.00
1992;DHT22;997;48.448;8.924;2022-08-03T15:08:14;39.50;56.10
1992;DHT22;997;48.448;8.924;2022-08-03T15:10:40;39.40;55.40
1992;DHT22;997;48.448;8.924;2022-08-03T15:13:06;39.30;56.80
1992;DHT22;997;48.448;8.924;2022-08-03T15:15:32;39.00;55.70
1992;DHT22;997;48.448;8.924;2022-08-03T15:17:57;38.60;55.90
1992;DHT22;997;48.448;8.924;2022-08-03T15:20:24;38.50;55.80
1992;DHT22;997;48.448;8.924;2022-08-03T15:22:50;38.20;57.10
1992;DHT22;997;48.448;8.924;2022-08-03T15:25:15;38.50;57.40
1992;DHT22;997;48.448;8.924;2022-08-03T15:27:41;39.30;56.90
1992;DHT22;997;48.448;8.924;2022-08-03T15:30:07;39.80;55.90
1992;DHT22;997;48.448;8.924;2022-08-03T15:32:34;40.30;54.60
1992;DHT22;997;48.448;8.924;2022-08-03T15:35:00;40.50;54.30
1992;DHT22;997;48.448;8.924;2022-08-03T15:37:26;41.00;54.20
1992;DHT22;997;48.448;8.924;2022-08-03T15:39:51;41.50;54.00
1992;DHT22;997;48.448;8.924;2022-08-03T15:42:17;41.90;52.70
1992;DHT22;997;48.448;8.924;2022-08-03T15:44:43;41.70;52.10
1992;DHT22;997;48.448;8.924;2022-08-03T15:47:10;41.90;51.30
1992;DHT22;997;48.448;8.924;2022-08-03T15:49:35;41.80;50.70
1992;DHT22;997;48.448;8.924;2022-08-03T15:52:01;41.70;50.60
1992;DHT22;997;48.448;8.924;2022-08-03T15:54:26;41.60;50.00
1992;DHT22;997;48.448;8.924;2022-08-03T15:56:52;41.50;50.50
1992;DHT22;997;48.448;8.924;2022-08-03T15:59:18;41.70;50.90
1992;DHT22;997;48.448;8.924;2022-08-03T16:01:45;41.90;50.20
1992;DHT22;997;48.448;8.924;2022-08-03T16:04:11;42.30;50.20
1992;DHT22;997;48.448;8.924;2022-08-03T16:06:36;42.70;49.70
1992;DHT22;997;48.448;8.924;2022-08-03T16:09:06;43.20;48.70
1992;DHT22;997;48.448;8.924;2022-08-03T16:11:33;43.70;49.40
1992;DHT22;997;48.448;8.924;2022-08-03T16:14:00;43.70;48.40
1992;DHT22;997;48.448;8.924;2022-08-03T16:16:26;44.10;48.10
1992;DHT22;997;48.448;8.924;2022-08-03T16:18:51;44.20;48.00
1992;DHT22;997;48.448;8.924;2022-08-03T16:21:17;44.20;46.60
1992;DHT22;997;48.448;8.924;2022-08-03T16:23:43;44.30;47.10
1992;DHT22;997;48.448;8.924;2022-08-03T16:26:10;44.30;47.10
1992;DHT22;997;48.448;8.924;2022-08-03T16:28:36;44.40;46.50
1992;DHT22;997;48.448;8.924;2022-08-03T16:31:04;44.70;46.50
1992;DHT22;997;48.448;8.924;2022-08-03T16:33:31;44.90;45.50
1992;DHT22;997;48.448;8.924;2022-08-03T16:35:57;44.80;45.70
1992;DHT22;997;48.448;8.924;2022-08-03T16:38:23;45.10;44.90
1992;DHT22;997;48.448;8.924;2022-08-03T16:40:49;45.60;45.30
1992;DHT22;997;48.448;8.924;2022-08-03T16:43:19;45.50;44.60
1992;DHT22;997;48.448;8.924;2022-08-03T16:45:46;45.60;45.50
1992;DHT22;997;48.448;8.924;2022-08-03T16:48:13;44.90;45.20
1992;DHT22;997;48.448;8.924;2022-08-03T16:50:38;43.60;45.90
1992;DHT22;997;48.448;8.924;2022-08-03T16:53:05;43.40;46.80
1992;DHT22;997;48.448;8.924;2022-08-03T16:55:36;42.80;46.90
1992;DHT22;997;48.448;8.924;2022-08-03T16:58:02;42.80;46.70
1992;DHT22;997;48.448;8.924;2022-08-03T17:00:28;43.00;47.00
1992;DHT22;997;48.448;8.924;2022-08-03T17:02:55;42.50;47.00
1992;DHT22;997;48.448;8.924;2022-08-03T17:05:23;42.50;47.30
1992;DHT22;997;48.448;8.924;2022-08-03T17:07:49;43.00;47.30
1992;DHT22;997;48.448;8.924;2022-08-03T17:10:15;43.30;47.00
1992;DHT22;997;48.448;8.924;2022-08-03T17:12:42;43.10;47.10
1992;DHT22;997;48.448;8.924;2022-08-03T17:15:08;42.80;47.00
1992;DHT22;997;48.448;8.924;2022-08-03T17:17:34;42.30;47.60
1992;DHT22;997;48.448;8.924;2022-08-03T17:20:06;41.90;47.60
1992;DHT22;997;48.448;8.924;2022-08-03T17:22:35;41.00;49.10
1992;DHT22;997;48.448;8.924;2022-08-03T17:25:07;40.00;49.00
1992;DHT22;997;48.448;8.924;2022-08-03T17:27:35;39.50;50.20
1992;DHT22;997;48.448;8.924;2022-08-03T17:30:10;39.30;50.20
1992;DHT22;997;48.448;8.924;2022-08-03T17:32:38;39.30;50.90
1992;DHT22;997;48.448;8.924;2022-08-03T17:35:06;39.20;50.40
1992;DHT22;997;48.448;8.924;2022-08-03T17:37:32;39.30;50.60
1992;DHT22;997;48.448;8.924;2022-08-03T17:39:58;39.00;50.70
1992;DHT22;997;48.448;8.924;2022-08-03T17:42:25;38.60;51.10
1992;DHT22;997;48.448;8.924;2022-08-03T17:44:52;38.00;51.20
1992;DHT22;997;48.448;8.924;2022-08-03T17:47:18;37.30;52.10
1992;DHT22;997;48.448;8.924;2022-08-03T17:49:44;36.80;53.10
1992;DHT22;997;48.448;8.924;2022-08-03T17:52:25;36.30;53.50
1992;DHT22;997;48.448;8.924;2022-08-03T17:55:03;35.70;54.40
1992;DHT22;997;48.448;8.924;2022-08-03T18:00:10;34.80;55.60
1992;DHT22;997;48.448;8.924;2022-08-03T18:03:23;34.30;56.00
1992;DHT22;997;48.448;8.924;2022-08-03T18:05:57;34.00;56.90
1992;DHT22;997;48.448;8.924;2022-08-03T18:08:28;33.70;57.40
1992;DHT22;997;48.448;8.924;2022-08-03T18:11:06;33.40;57.70
1992;DHT22;997;48.448;8.924;2022-08-03T18:16:48;33.20;58.40
1992;DHT22;997;48.448;8.924;2022-08-03T18:19:17;33.20;59.00
1992;DHT22;997;48.448;8.924;2022-08-03T18:21:49;33.10;59.10
1992;DHT22;997;48.448;8.924;2022-08-03T18:24:18;33.10;59.40
1992;DHT22;997;48.448;8.924;2022-08-03T18:26:44;33.00;59.50
1992;DHT22;997;48.448;8.924;2022-08-03T18:29:11;32.90;59.60
1992;DHT22;997;48.448;8.924;2022-08-03T18:31:39;32.80;59.70
1992;DHT22;997;48.448;8.924;2022-08-03T18:34:05;33.00;60.40
1992;DHT22;997;48.448;8.924;2022-08-03T18:36:33;32.90;60.20
1992;DHT22;997;48.448;8.924;2022-08-03T18:39:03;32.90;60.40
1992;DHT22;997;48.448;8.924;2022-08-03T18:41:31;32.90;60.50
1992;DHT22;997;48.448;8.924;2022-08-03T18:43:57;32.90;60.90
1992;DHT22;997;48.448;8.924;2022-08-03T18:49:10;32.80;61.20
1992;DHT22;997;48.448;8.924;2022-08-03T18:51:38;32.70;61.40
1992;DHT22;997;48.448;8.924;2022-08-03T18:54:19;32.50;61.60
1992;DHT22;997;48.448;8.924;2022-08-03T18:56:53;32.40;62.00
1992;DHT22;997;48.448;8.924;2022-08-03T18:59:50;32.10;61.60
1992;DHT22;997;48.448;8.924;2022-08-03T19:02:48;31.80;61.80
1992;DHT22;997;48.448;8.924;2022-08-03T19:05:18;31.60;62.20
1992;DHT22;997;48.448;8.924;2022-08-03T19:07:57;31.60;62.90
1992;DHT22;997;48.448;8.924;2022-08-03T19:10:28;31.50;63.10
1992;DHT22;997;48.448;8.924;2022-08-03T19:12:57;31.40;63.30
1992;DHT22;997;48.448;8.924;2022-08-03T19:15:28;31.30;63.90
1992;DHT22;997;48.448;8.924;2022-08-03T19:17:57;31.10;64.20
1992;DHT22;997;48.448;8.924;2022-08-03T19:20:26;31.00;64.80
1992;DHT22;997;48.448;8.924;2022-08-03T19:22:54;30.90;65.40
1992;DHT22;997;48.448;8.924;2022-08-03T19:25:20;30.80;64.80
1992;DHT22;997;48.448;8.924;2022-08-03T19:27:47;30.70;64.70
1992;DHT22;997;48.448;8.924;2022-08-03T19:30:14;30.50;61.60
1992;DHT22;997;48.448;8.924;2022-08-03T19:33:18;30.50;62.30
1992;DHT22;997;48.448;8.924;2022-08-03T19:35:46;30.50;61.30
1992;DHT22;997;48.448;8.924;2022-08-03T19:38:15;30.60;62.10
1992;DHT22;997;48.448;8.924;2022-08-03T19:40:44;30.60;60.90
1992;DHT22;997;48.448;8.924;2022-08-03T19:44:11;30.60;62.00
1992;DHT22;997;48.448;8.924;2022-08-03T19:46:11;30.60;61.50
1992;DHT22;997;48.448;8.924;2022-08-03T19:48:38;30.60;60.10
1992;DHT22;997;48.448;8.924;2022-08-03T19:51:07;30.60;60.10
1992;DHT22;997;48.448;8.924;2022-08-03T19:53:34;30.70;60.10
1992;DHT22;997;48.448;8.924;2022-08-03T19:56:03;30.50;59.40
1992;DHT22;997;48.448;8.924;2022-08-03T19:58:31;30.60;60.90
1992;DHT22;997;48.448;8.924;2022-08-03T20:00:57;30.60;60.30
1992;DHT22;997;48.448;8.924;2022-08-03T20:03:28;30.60;60.10
1992;DHT22;997;48.448;8.924;2022-08-03T20:05:56;30.60;60.40